Latest Weather Observations for Hay Airport

IDN60801

Issued at 4:32 pm EST Monday 30 May 2016 (issued every 30 minutes, with the page automatically refreshed every 10 minutes)

About weather observations | Map of weather stations | Latest weather observations for NSW | Other Formats
Station Details ID: 075019 Name: HAY AIRPORT AWS Lat: -34.54 Lon: 144.83 Height: 92.0 m
Data from the previous 72 hours. | See also: Recent months at Hay Airport
Date/Time
EST
Temp
°C
App
Temp
°C
Dew
Point
Rel
Hum
%
Delta-T
°C
Wind Press
QNH
hPa
Press
MSL
hPa
Rain
since 9 am
mm
Dir
 
Spd
km/h
Gust
km/h
Spd
kts
Gust
kts
30/04:00pm 13.0 11.4 4.7 57 3.8 E 2 7 1 4 1024.9 1024.9 0.0
30/03:30pm 14.4 11.4 4.1 50 4.7 NE 9 13 5 7 1024.9 1024.9 0.0
30/03:00pm 14.5 11.5 3.9 49 4.8 E 9 15 5 8 1024.8 1024.8 0.0
30/02:30pm 14.4 11.4 4.1 50 4.7 E 9 15 5 8 1024.8 1024.8 0.0
30/02:00pm 14.7 12.2 4.7 51 4.7 ENE 7 13 4 7 1024.8 1024.8 0.0
30/01:30pm 14.3 10.8 3.7 49 4.8 ENE 11 15 6 8 1025.1 1025.1 0.0
30/01:00pm 14.5 11.2 4.8 52 4.5 ENE 11 15 6 8 1025.4 1025.4 0.0
30/12:30pm 13.8 10.4 4.1 52 4.4 E 11 17 6 9 1025.7 1025.7 0.0
30/12:00pm 14.2 10.6 4.8 53 4.4 NE 13 22 7 12 1026.0 1026.0 0.0
30/11:30am 13.7 9.5 5.8 59 3.8 NE 17 22 9 12 1026.3 1026.3 0.0
30/11:00am 13.3 9.1 5.5 59 3.6 NE 17 20 9 11 1026.7 1026.7 0.0
30/10:30am 12.3 7.9 5.0 61 3.4 NE 17 20 9 11 1026.7 1026.7 0.0
30/10:00am 11.8 7.4 4.8 62 3.2 NE 17 26 9 14 1026.7 1026.7 0.0
30/09:30am 10.8 7.7 5.6 70 2.4 ENE 11 15 6 8 1026.5 1026.5 0.0
30/09:00am 8.3 5.0 4.5 77 1.7 E 11 15 6 8 1026.2 1026.2 0.0
30/08:30am 7.7 4.7 4.3 79 1.5 ENE 9 13 5 7 1026.0 1026.0 0.0
30/08:00am 5.8 2.7 3.6 86 0.9 E 9 13 5 7 1025.8 1025.8 0.0
30/07:30am 5.1 1.9 3.1 87 0.8 E 9 11 5 6 1025.6 1025.6 0.0
30/07:00am 5.1 1.5 3.1 87 0.8 E 11 15 6 8 1025.1 1025.1 0.0
30/06:30am 5.1 1.1 3.0 86 0.9 ENE 13 17 7 9 1024.8 1024.8 0.0
30/06:00am 5.1 1.1 2.8 85 0.9 ENE 13 17 7 9 1024.3 1024.3 0.0
30/05:30am 5.5 1.2 3.0 84 1.0 E 15 19 8 10 1024.0 1024.0 0.0
30/05:00am 6.1 2.2 3.3 82 1.2 E 13 17 7 9 1023.9 1023.9 0.0
30/04:30am 6.3 2.4 3.3 81 1.3 E 13 17 7 9 1023.7 1023.7 0.0
30/04:00am 6.0 2.1 3.3 83 1.1 ENE 13 15 7 8 1023.5 1023.5 0.0
30/03:30am 6.4 2.6 3.7 83 1.1 E 13 17 7 9 1023.5 1023.5 0.0
30/03:00am 6.5 2.7 3.7 82 1.2 ENE 13 17 7 9 1023.6 1023.6 0.0
30/02:30am 7.2 3.1 4.2 81 1.3 E 15 20 8 11 1023.6 1023.6 0.0
30/02:00am 7.4 4.2 4.9 84 1.1 E 11 15 6 8 1023.6 1023.6 0.0
30/01:30am 7.7 4.1 4.8 82 1.3 E 13 17 7 9 1023.5 1023.5 0.0
30/01:00am 7.7 4.5 5.0 83 1.2 E 11 15 6 8 1023.6 1023.6 0.0
30/12:30am 8.3 6.0 5.6 83 1.2 E 7 11 4 6 1023.7 1023.7 0.0
30/12:00am 8.4 6.1 5.7 83 1.2 E 7 11 4 6 1023.8 1023.8 0.0
 
Date/Time
EST
Temp
°C
App
Temp
°C
Dew
Point
Rel
Hum
%
Delta-T
°C
Wind Press
QNH
hPa
Press
MSL
hPa
Rain
since 9 am
mm
Dir
 
Spd
km/h
Gust
km/h
Spd
kts
Gust
kts
29/11:30pm 8.4 6.1 5.7 83 1.2 ESE 7 9 4 5 1023.9 1023.9 0.0
29/11:00pm 8.2 5.9 5.8 85 1.1 E 7 9 4 5 1024.0 1024.0 0.0
29/10:30pm 8.1 5.8 5.7 85 1.1 SE 7 9 4 5 1023.8 1023.8 0.0
29/10:00pm 8.0 5.9 5.8 86 1.0 ENE 6 9 3 5 1023.7 1023.7 0.0
29/09:30pm 8.2 5.8 5.3 82 1.3 ESE 7 9 4 5 1023.6 1023.6 0.0
29/09:00pm 8.4 5.9 4.8 78 1.6 ESE 7 9 4 5 1023.5 1023.5 0.0
29/08:30pm 8.7 6.2 4.7 76 1.8 SSE 7 9 4 5 1023.3 1023.3 0.0
29/08:00pm 9.1 6.7 5.1 76 1.8 SE 7 9 4 5 1023.0 1023.0 0.0
29/07:30pm 9.3 8.2 5.1 75 1.9 CALM 0 0 0 0 1022.9 1022.9 0.0
29/07:00pm 10.2 8.0 5.4 72 2.2 SSW 6 9 3 5 1022.7 1022.7 0.0
29/06:30pm 11.1 9.0 4.1 62 3.1 S 4 9 2 5 1022.4 1022.5 0.0
29/06:00pm 11.4 9.1 2.9 56 3.7 W 4 11 2 6 1022.1 1022.2 0.0
29/05:30pm 11.3 8.8 5.0 65 2.9 W 7 9 4 5 1021.8 1021.9 0.0
29/05:00pm 11.6 9.3 4.8 63 3.1 W 6 9 3 5 1021.7 1021.8 0.0
29/04:30pm 11.9 8.7 5.1 63 3.1 WNW 11 17 6 9 1021.5 1021.6 0.0
29/04:00pm 12.3 8.6 4.3 58 3.6 WNW 13 19 7 10 1021.4 1021.5 0.0
29/03:30pm 12.4 9.1 4.4 58 3.7 SW 11 15 6 8 1021.3 1021.4 0.0
29/03:00pm 12.5 8.5 5.0 60 3.5 SW 15 19 8 10 1021.0 1021.0 0.0
29/02:30pm 12.8 9.5 4.5 57 3.8 WSW 11 19 6 10 1021.0 1021.0 0.0
29/02:00pm 13.7 10.5 5.3 57 3.9 WSW 11 15 6 8 1021.1 1021.1 0.0
29/01:30pm 12.3 8.2 4.3 58 3.6 W 15 20 8 11 1021.1 1021.1 0.0
29/01:00pm 13.3 9.4 5.5 59 3.7 W 15 20 8 11 1021.2 1021.3 0.0
29/12:30pm 12.5 10.0 4.7 59 3.6 SSW 7 17 4 9 1021.4 1021.5 0.0
29/12:00pm 12.8 11.0 5.5 61 3.4 WNW 4 13 2 7 1021.7 1021.8 0.0
29/11:30am 12.1 9.9 5.5 64 3.1 S 6 9 3 5 1022.0 1022.1 0.0
29/11:00am 11.5 9.1 5.2 65 2.9 SSE 7 13 4 7 1022.1 1022.2 0.0
29/10:30am 11.0 8.0 6.2 72 2.3 S 11 13 6 7 1022.2 1022.3 0.0
29/10:00am 10.1 7.2 6.3 77 1.8 S 11 15 6 8 1022.1 1022.2 0.0
29/09:30am 8.9 6.4 6.5 85 1.1 S 9 15 5 8 1021.9 1022.0 0.0
29/09:00am 7.4 5.0 7.0 97 0.2 S 9 11 5 6 1021.5 1021.6 0.2
29/08:30am 5.7 3.4 5.6 99 0.0 SW 7 11 4 6 1021.2 1021.3 0.2
29/08:00am 5.3 3.1 5.2 99 0.0 WSW 6 7 3 4 1020.9 1020.9 0.2
29/07:30am 4.9 2.4 4.8 99 0.0 WSW 7 11 4 6 1020.7 1020.7 0.2
29/07:00am 4.3 1.7 4.2 99 0.0 WSW 7 11 4 6 1020.3 1020.3 0.2
29/06:30am 2.9 0.0 2.8 99 0.0 W 7 9 4 5 1019.9 1019.9 0.2
29/06:00am 2.0 -0.8 1.9 99 0.0 W 6 9 3 5 1019.4 1019.4 0.2
29/05:30am 2.0 -1.0 1.9 99 0.0 W 7 9 4 5 1019.1 1019.1 0.2
29/05:00am 2.5 -0.2 2.4 99 0.0 W 6 7 3 4 1018.9 1018.9 0.2
29/04:30am 2.5 -0.4 2.4 99 0.0 WSW 7 9 4 5 1018.9 1018.9 0.2
29/04:00am 2.8 0.1 2.7 99 0.0 WSW 6 7 3 4 1018.7 1018.7 0.2
29/03:30am 3.5 0.7 3.4 99 0.0 WSW 7 7 4 4 1018.5 1018.5 0.2
29/03:00am 3.7 0.6 3.6 99 0.0 W 9 9 5 5 1018.7 1018.7 0.0
29/02:30am 4.0 1.0 3.9 99 0.0 W 9 11 5 6 1018.6 1018.6 0.0
29/02:00am 4.4 1.8 4.3 99 0.0 W 7 9 4 5 1018.6 1018.6 0.0
29/01:30am 4.8 1.9 4.7 99 0.0 W 9 9 5 5 1018.3 1018.3 0.0
29/01:00am 4.9 2.0 4.6 98 0.1 WSW 9 11 5 6 1018.2 1018.2 0.0
29/12:30am 5.6 2.4 5.2 97 0.2 W 11 13 6 7 1018.2 1018.2 0.0
29/12:00am 6.3 2.9 5.7 96 0.3 W 13 15 7 8 1018.2 1018.2 0.0
 
Date/Time
EST
Temp
°C
App
Temp
°C
Dew
Point
Rel
Hum
%
Delta-T
°C
Wind Press
QNH
hPa
Press
MSL
hPa
Rain
since 9 am
mm
Dir
 
Spd
km/h
Gust
km/h
Spd
kts
Gust
kts
28/11:30pm 6.6 3.6 5.9 95 0.3 W 11 13 6 7 1018.2 1018.2 0.0
28/11:00pm 7.3 4.0 6.4 94 0.4 W 13 15 7 8 1018.1 1018.1 0.0
28/10:30pm 7.7 4.4 6.6 93 0.5 W 13 15 7 8 1017.8 1017.8 0.0
28/10:00pm 7.3 4.3 6.1 92 0.5 WNW 11 13 6 7 1017.8 1017.8 0.0
28/09:30pm 7.8 4.9 6.4 91 0.6 W 11 13 6 7 1017.4 1017.4 0.0
28/09:00pm 7.6 4.3 6.4 92 0.5 W 13 15 7 8 1017.1 1017.1 0.0
28/08:30pm 8.2 5.0 6.8 91 0.7 W 13 15 7 8 1016.9 1016.9 0.0
28/08:00pm 8.0 4.8 6.8 92 0.6 W 13 15 7 8 1016.5 1016.5 0.0
28/07:30pm 8.6 5.9 7.2 91 0.7 W 11 13 6 7 1016.3 1016.3 0.0
28/07:00pm 8.8 6.0 7.1 89 0.8 WSW 11 11 6 6 1015.9 1015.9 0.0
28/06:30pm 9.1 6.4 7.2 88 0.9 WSW 11 13 6 7 1015.5 1015.5 0.0
28/06:00pm 10.2 7.1 7.4 83 1.3 WSW 13 15 7 8 1015.2 1015.2 0.0
28/05:30pm 11.1 8.0 7.4 78 1.8 WSW 13 17 7 9 1014.8 1014.8 0.0
28/05:00pm 12.8 9.4 7.5 70 2.6 WSW 15 19 8 10 1014.5 1014.5 0.0
28/04:30pm 13.7 9.9 7.7 67 3.0 WSW 17 22 9 12 1014.2 1014.2 0.0
28/04:00pm 14.0 9.5 6.8 62 3.5 SW 20 26 11 14 1014.0 1014.0 0.0
28/03:30pm 13.9 9.0 7.0 63 3.4 WSW 22 28 12 15 1013.5 1013.5 0.0
28/03:00pm 13.1 7.8 6.9 66 3.0 SW 24 30 13 16 1013.0 1013.0 0.0
28/02:30pm 13.8 8.2 7.3 65 3.2 SSW 26 37 14 20 1012.7 1012.7 0.0
28/02:00pm 13.4 8.8 8.0 70 2.7 SSW 22 30 12 16 1012.2 1012.2 0.0
28/01:30pm 13.0 8.1 8.3 73 2.3 S 24 35 13 19 1012.0 1011.9 0.0
28/01:00pm 12.8 8.0 8.9 77 2.0 S 24 32 13 17 1011.7 1011.6 0.0
28/12:30pm 12.3 8.4 9.5 83 1.4 S 20 28 11 15 1011.4 1011.3 0.0
28/12:00pm 11.2 7.3 9.6 90 0.8 S 20 26 11 14 1011.3 1011.2 0.0
28/11:30am 10.7 6.9 9.8 94 0.5 SSW 20 26 11 14 1011.5 1011.4 0.0
28/11:00am 10.5 5.9 9.6 94 0.5 SSW 24 32 13 17 1011.6 1011.5 0.0
28/10:30am 10.6 6.6 10.4 99 0.1 SW 22 30 12 16 1011.1 1011.1 0.0
28/10:00am 9.9 5.3 9.8 99 0.1 WSW 24 33 13 18 1010.6 1010.6 0.0
28/09:30am 9.4 5.1 9.3 99 0.0 W 22 30 12 16 1010.1 1010.1 0.0
28/09:00am 9.0 5.0 8.9 99 0.0 W 20 28 11 15 1009.7 1009.7 5.0
28/08:30am 8.8 4.9 8.7 99 0.0 W 19 24 10 13 1009.4 1009.4 5.0
28/08:00am 8.4 4.8 8.3 99 0.0 W 17 20 9 11 1009.1 1009.1 5.0
28/07:30am 8.2 4.2 8.1 99 0.0 W 19 24 10 13 1008.8 1008.8 5.0
28/07:00am 8.0 5.0 7.9 99 0.0 W 13 17 7 9 1008.4 1008.4 4.8
28/06:30am 7.5 4.4 7.4 99 0.0 WNW 13 19 7 10 1008.0 1008.0 4.4
28/06:00am 7.5 4.0 7.4 99 0.0 WNW 15 20 8 11 1007.7 1007.7 4.4
28/05:30am 7.6 3.4 7.5 99 0.0 WNW 19 22 10 12 1007.4 1007.4 4.4
28/05:00am 8.2 3.5 7.9 98 0.1 WNW 22 30 12 16 1007.1 1007.1 4.4
28/04:30am 8.6 4.4 8.2 97 0.2 WNW 20 28 11 15 1007.0 1007.0 4.4
28/04:00am 8.9 4.4 8.6 98 0.1 WNW 22 30 12 16 1006.7 1006.7 4.4
28/03:30am 9.0 5.0 8.9 99 0.0 WNW 20 26 11 14 1006.6 1006.6 4.4
28/03:00am 9.0 5.5 8.9 99 0.0 WNW 17 20 9 11 1006.7 1006.7 4.4
28/02:30am 9.1 5.7 9.0 99 0.0 WNW 17 24 9 13 1006.7 1006.7 4.4
28/02:00am 8.9 5.4 8.8 99 0.0 WNW 17 22 9 12 1006.8 1006.8 4.4
28/01:30am 8.3 6.5 8.0 98 0.1 NW 7 11 4 6 1006.8 1006.8 4.4
28/01:00am 8.7 7.0 8.3 97 0.2 W 7 9 4 5 1006.9 1006.9 4.4
28/12:30am 8.7 5.8 8.1 96 0.3 W 13 17 7 9 1007.2 1007.2 4.0
28/12:00am 9.3 4.4 8.4 94 0.4 WNW 24 35 13 19 1007.5 1007.5 2.0
 
Date/Time
EST
Temp
°C
App
Temp
°C
Dew
Point
Rel
Hum
%
Delta-T
°C
Wind Press
QNH
hPa
Press
MSL
hPa
Rain
since 9 am
mm
Dir
 
Spd
km/h
Gust
km/h
Spd
kts
Gust
kts
27/11:30pm 10.0 5.3 9.4 96 0.3 WNW 24 30 13 16 1007.6 1007.6 0.8
27/11:00pm 10.5 6.3 9.6 94 0.5 WNW 22 33 12 18 1007.6 1007.6 0.6
27/10:30pm 10.5 8.4 9.9 96 0.3 NW 11 15 6 8 1007.7 1007.7 0.4
27/10:00pm 10.5 8.8 9.7 95 0.4 NNW 9 11 5 6 1007.7 1007.7 0.4
27/09:30pm 10.7 7.9 9.9 95 0.4 NW 15 20 8 11 1008.0 1008.0 0.4
27/09:00pm 11.3 8.9 10.2 93 0.6 WNW 13 19 7 10 1007.8 1007.8 0.4
27/08:30pm 11.8 7.4 10.5 92 0.7 N 24 32 13 17 1007.9 1007.9 0.0
27/08:00pm 12.5 8.5 10.4 87 1.1 NNW 22 33 12 18 1007.8 1007.8 0.0
27/07:30pm 13.0 9.4 9.8 81 1.6 N 19 22 10 12 1007.7 1007.7 0.0
27/07:00pm 13.3 9.6 9.5 78 2.0 N 19 22 10 12 1007.7 1007.7 0.0
27/06:30pm 13.1 9.7 9.2 77 2.0 N 17 20 9 11 1007.7 1007.7 0.0
27/06:00pm 13.7 10.4 9.6 76 2.1 N 17 19 9 10 1007.7 1007.7 0.0
27/05:30pm 14.0 11.1 9.6 75 2.3 N 15 17 8 9 1007.9 1007.9 0.0
27/05:00pm 14.5 11.6 9.5 72 2.6 N 15 19 8 10 1007.7 1007.7 0.0

Other Formats:

Comma delimited format used in spreadsheet applications
http://www.bom.gov.au/fwo/IDN60801/IDN60801.94702.axf

JavaScript Object Notation format (JSON) in row-major order
http://www.bom.gov.au/fwo/IDN60801/IDN60801.94702.json